Time;durP1;ratioP1;P1;durP2;ratioP2;P2;SDS_P1;SDS_P2;PMS_P1;PMS_P2;Temp;Humidity;BMP_temperature;BMP_pressure;BME280_temperature;BME280_humidity;BME280_pressure;Samples;Min_cycle;Max_cycle;Signal;HPM_P1;HPM_P2
2021/04/06 00:01:52;;;;;;;3.50;2.03;;;;;;;;;;5090059;28;20036;-78
2021/04/06 00:04:20;;;;;;;2.78;1.58;;;;;;;;;;5089614;28;20047;-78
2021/04/06 00:06:49;;;;;;;3.30;2.10;;;;;;;;;;5089617;28;20036;-78
2021/04/06 00:09:17;;;;;;;1.67;1.58;;;;;;;;;;5088965;28;20412;-78
2021/04/06 00:11:45;;;;;;;2.58;1.73;;;;;;;;;;5089496;28;20111;-78
2021/04/06 00:14:13;;;;;;;1.77;1.67;;;;;;;;;;5089142;28;20020;-78
2021/04/06 00:16:40;;;;;;;2.47;1.95;;;;;;;;;;5090366;28;20462;-78
2021/04/06 00:19:09;;;;;;;2.47;1.90;;;;;;;;;;5089408;28;20134;-78
2021/04/06 00:21:36;;;;;;;2.90;2.28;;;;;;;;;;5089119;28;20265;-78
2021/04/06 00:24:03;;;;;;;2.20;1.73;;;;;;;;;;5089113;28;20016;-77
2021/04/06 00:26:44;;;;;;;3.60;3.30;;;;;;;;;;5090355;28;20020;-78
2021/04/06 00:29:10;;;;;;;6.15;2.75;;;;;;;;;;5089016;28;20028;-78
2021/04/06 00:31:37;;;;;;;3.17;2.05;;;;;;;;;;5090164;28;20375;-78
2021/04/06 00:34:03;;;;;;;2.67;2.30;;;;;;;;;;5089103;28;20111;-77
2021/04/06 00:36:29;;;;;;;2.35;2.15;;;;;;;;;;5088685;28;20016;-78
2021/04/06 00:38:56;;;;;;;4.57;2.65;;;;;;;;;;5076627;28;20063;-77
2021/04/06 00:41:22;;;;;;;3.17;1.90;;;;;;;;;;5068578;28;20104;-78
2021/04/06 00:43:49;;;;;;;3.63;3.33;;;;;;;;;;5051300;28;20452;-78
2021/04/06 00:46:24;;;;;;;2.28;2.05;;;;;;;;;;5068867;28;20025;-78
2021/04/06 00:48:52;;;;;;;2.22;2.08;;;;;;;;;;5069216;28;20054;-78
2021/04/06 00:51:20;;;;;;;2.78;2.58;;;;;;;;;;5068029;28;20089;-78
2021/04/06 00:54:00;;;;;;;3.00;1.75;;;;;;;;;;5069446;28;20024;-78
2021/04/06 00:56:29;;;;;;;1.77;1.63;;;;;;;;;;5069382;28;20024;-78
2021/04/06 00:58:56;;;;;;;2.70;2.40;;;;;;;;;;5068310;28;20048;-76
2021/04/06 01:01:42;;;;;;;2.13;1.92;;;;;;;;;;5067748;28;20086;-78
2021/04/06 01:04:13;;;;;;;4.20;2.75;;;;;;;;;;5067529;28;20599;-77
2021/04/06 01:06:59;;;;;;;4.13;2.17;;;;;;;;;;5068376;28;20032;-78
2021/04/06 01:09:43;;;;;;;3.00;2.15;;;;;;;;;;5068166;28;20059;-78
2021/04/06 01:12:11;;;;;;;3.00;2.30;;;;;;;;;;5067192;28;20028;-78
2021/04/06 01:14:38;;;;;;;3.78;2.10;;;;;;;;;;5068521;28;20021;-78
2021/04/06 01:17:05;;;;;;;2.38;2.17;;;;;;;;;;5067963;28;20025;-77
2021/04/06 01:19:32;;;;;;;2.55;1.83;;;;;;;;;;5068297;28;20297;-78
2021/04/06 01:21:59;;;;;;;2.47;2.03;;;;;;;;;;5067794;28;20029;-77
2021/04/06 01:24:27;;;;;;;2.38;2.15;;;;;;;;;;5068050;28;20027;-78
2021/04/06 01:26:53;;;;;;;2.70;2.50;;;;;;;;;;5069343;28;20031;-78
2021/04/06 01:29:19;;;;;;;5.10;2.47;;;;;;;;;;5067912;28;20085;-78
2021/04/06 01:31:46;;;;;;;3.05;2.63;;;;;;;;;;5067827;28;20031;-78
2021/04/06 01:34:12;;;;;;;2.13;1.85;;;;;;;;;;5067404;28;20028;-78
2021/04/06 01:36:38;;;;;;;2.05;1.63;;;;;;;;;;5068151;28;20044;-78
2021/04/06 01:39:05;;;;;;;3.00;2.55;;;;;;;;;;5080157;28;20051;-78
2021/04/06 01:41:31;;;;;;;2.47;2.28;;;;;;;;;;5088050;28;20028;-78
2021/04/06 01:43:58;;;;;;;2.83;2.50;;;;;;;;;;5087731;28;20039;-77
2021/04/06 01:46:37;;;;;;;2.83;2.08;;;;;;;;;;5088494;28;20031;-78
2021/04/06 01:49:03;;;;;;;3.78;2.35;;;;;;;;;;5069155;28;20515;-78
2021/04/06 01:51:30;;;;;;;1.80;1.70;;;;;;;;;;5067230;28;20037;-78
2021/04/06 01:53:56;;;;;;;1.88;1.67;;;;;;;;;;5068528;28;20024;-77
2021/04/06 01:56:24;;;;;;;2.15;1.95;;;;;;;;;;5068231;28;20028;-78
2021/04/06 01:58:54;;;;;;;2.53;2.20;;;;;;;;;;5067872;28;20562;-78
2021/04/06 02:01:23;;;;;;;3.30;2.65;;;;;;;;;;5065928;28;20503;-77
2021/04/06 02:06:24;;;;;;;2.33;2.13;;;;;;;;;;5066844;28;20029;-78
2021/04/06 02:08:51;;;;;;;3.92;2.10;;;;;;;;;;5066476;28;20274;-77
2021/04/06 02:11:31;;;;;;;5.05;2.45;;;;;;;;;;5066725;28;20032;-78
2021/04/06 02:14:04;;;;;;;2.03;1.88;;;;;;;;;;5067410;28;20483;-77
2021/04/06 02:16:42;;;;;;;2.45;2.25;;;;;;;;;;5067485;28;20111;-78
2021/04/06 02:19:08;;;;;;;2.70;2.30;;;;;;;;;;5066954;28;20077;-78
2021/04/06 02:21:48;;;;;;;3.72;2.25;;;;;;;;;;5067210;28;20025;-78
2021/04/06 02:24:26;;;;;;;2.33;2.13;;;;;;;;;;5066579;28;20059;-78
2021/04/06 02:27:04;;;;;;;3.17;2.35;;;;;;;;;;5068010;28;20341;-78
2021/04/06 02:29:31;;;;;;;2.30;2.10;;;;;;;;;;5067172;28;20024;-77
2021/04/06 02:31:58;;;;;;;4.85;2.72;;;;;;;;;;5066809;28;20466;-78
2021/04/06 02:34:32;;;;;;;2.38;2.17;;;;;;;;;;5067476;28;20032;-78
2021/04/06 02:36:58;;;;;;;3.40;2.78;;;;;;;;;;5066568;28;20036;-78
2021/04/06 02:39:25;;;;;;;4.43;3.10;;;;;;;;;;5067176;28;20056;-78
2021/04/06 02:41:51;;;;;;;2.33;2.05;;;;;;;;;;5067567;28;20391;-78
2021/04/06 02:44:20;;;;;;;4.47;2.88;;;;;;;;;;5066690;28;20111;-77
2021/04/06 02:46:52;;;;;;;4.45;3.00;;;;;;;;;;5067837;28;20025;-78
2021/04/06 02:49:19;;;;;;;5.38;3.13;;;;;;;;;;5046843;28;20033;-78
2021/04/06 02:51:45;;;;;;;3.00;2.20;;;;;;;;;;5047525;28;20052;-78
2021/04/06 02:54:13;;;;;;;4.00;2.85;;;;;;;;;;5047253;28;20033;-78
2021/04/06 02:56:39;;;;;;;3.15;2.72;;;;;;;;;;5047875;28;20018;-78
2021/04/06 02:59:12;;;;;;;3.00;2.70;;;;;;;;;;5049114;28;20112;-77
2021/04/06 03:01:38;;;;;;;3.00;2.27;;;;;;;;;;5050928;28;20434;-78
2021/04/06 03:04:15;;;;;;;4.90;3.58;;;;;;;;;;5050209;28;20283;-77
2021/04/06 03:06:41;;;;;;;3.40;3.10;;;;;;;;;;5050635;28;20033;-78
2021/04/06 03:09:11;;;;;;;5.00;3.33;;;;;;;;;;5049357;28;20032;-77
2021/04/06 03:11:47;;;;;;;4.47;2.40;;;;;;;;;;5050169;28;20031;-78
2021/04/06 03:14:13;;;;;;;4.60;3.28;;;;;;;;;;5049666;28;20483;-77
2021/04/06 03:16:40;;;;;;;2.65;2.45;;;;;;;;;;5050412;28;20082;-78
2021/04/06 03:19:07;;;;;;;3.50;2.65;;;;;;;;;;5049825;28;20103;-77
2021/04/06 03:21:33;;;;;;;4.15;3.25;;;;;;;;;;5050744;28;20024;-78
2021/04/06 03:24:00;;;;;;;2.85;2.65;;;;;;;;;;5049873;28;20029;-77
2021/04/06 03:26:27;;;;;;;3.65;3.00;;;;;;;;;;5050966;28;20566;-78
2021/04/06 03:28:57;;;;;;;2.95;2.72;;;;;;;;;;5050375;28;20029;-77
2021/04/06 03:31:25;;;;;;;5.03;3.38;;;;;;;;;;5050270;28;20373;-77
2021/04/06 03:33:51;;;;;;;5.78;4.35;;;;;;;;;;5050035;28;20056;-77
2021/04/06 03:36:20;;;;;;;2.67;2.47;;;;;;;;;;5050536;28;20029;-77
2021/04/06 03:38:46;;;;;;;4.15;3.58;;;;;;;;;;5060001;28;20079;-77
2021/04/06 03:41:12;;;;;;;3.25;2.75;;;;;;;;;;5069447;28;20029;-77
2021/04/06 03:43:39;;;;;;;3.88;3.33;;;;;;;;;;5070233;28;20032;-77
2021/04/06 03:46:06;;;;;;;3.10;2.80;;;;;;;;;;5069913;28;20503;-77
2021/04/06 03:48:33;;;;;;;3.22;2.50;;;;;;;;;;5084146;28;20024;-77
2021/04/06 03:51:00;;;;;;;2.72;2.33;;;;;;;;;;5089459;28;20043;-77
2021/04/06 03:53:37;;;;;;;3.63;2.80;;;;;;;;;;5090579;28;20020;-77
2021/04/06 03:56:06;;;;;;;5.03;3.13;;;;;;;;;;5090171;28;20028;-77
2021/04/06 03:58:37;;;;;;;3.78;3.38;;;;;;;;;;5090457;28;20066;-77
2021/04/06 04:01:03;;;;;;;4.70;3.30;;;;;;;;;;5088944;28;20031;-76
2021/04/06 04:03:29;;;;;;;4.30;3.90;;;;;;;;;;5089795;28;20486;-77
2021/04/06 04:05:55;;;;;;;3.63;2.67;;;;;;;;;;5089804;28;20033;-77
2021/04/06 04:08:22;;;;;;;3.97;3.25;;;;;;;;;;5088651;28;20027;-77
2021/04/06 04:10:48;;;;;;;3.83;2.95;;;;;;;;;;5088846;28;20435;-77
2021/04/06 04:13:14;;;;;;;3.65;3.22;;;;;;;;;;5089122;28;20027;-77
2021/04/06 04:15:40;;;;;;;3.78;3.08;;;;;;;;;;5090176;28;20154;-77
2021/04/06 04:18:06;;;;;;;2.83;2.63;;;;;;;;;;5088576;28;20020;-77
2021/04/06 04:20:32;;;;;;;3.03;2.70;;;;;;;;;;5089714;28;20027;-77
2021/04/06 04:22:58;;;;;;;3.35;2.92;;;;;;;;;;5089421;28;20036;-77
2021/04/06 04:25:24;;;;;;;4.38;3.55;;;;;;;;;;5090167;28;20109;-77
2021/04/06 04:27:51;;;;;;;4.15;3.78;;;;;;;;;;5089997;28;20024;-78
2021/04/06 04:33:03;;;;;;;3.20;2.88;;;;;;;;;;5089234;28;20116;-77
2021/04/06 04:35:30;;;;;;;2.88;2.67;;;;;;;;;;5089718;28;20150;-77
2021/04/06 04:37:56;;;;;;;3.55;3.22;;;;;;;;;;5088260;28;20039;-76
2021/04/06 04:40:22;;;;;;;3.38;2.83;;;;;;;;;;5088983;28;20020;-77
2021/04/06 04:42:50;;;;;;;4.38;3.30;;;;;;;;;;5089306;28;20032;-77
2021/04/06 04:45:16;;;;;;;5.15;4.38;;;;;;;;;;5089174;28;20028;-77
2021/04/06 04:47:43;;;;;;;3.60;3.30;;;;;;;;;;5089580;28;20095;-78
2021/04/06 04:50:09;;;;;;;3.70;3.35;;;;;;;;;;5089170;28;20024;-77
2021/04/06 04:52:35;;;;;;;3.15;2.88;;;;;;;;;;5088818;28;20024;-77
2021/04/06 04:55:01;;;;;;;3.50;3.20;;;;;;;;;;5088821;28;20035;-77
2021/04/06 04:57:27;;;;;;;3.90;3.50;;;;;;;;;;5089854;28;20360;-77
2021/04/06 04:59:53;;;;;;;5.88;3.75;;;;;;;;;;5088908;28;20051;-77
2021/04/06 05:02:19;;;;;;;4.00;3.45;;;;;;;;;;5088266;28;20367;-77
2021/04/06 05:04:45;;;;;;;4.50;3.40;;;;;;;;;;5088904;28;20032;-77
2021/04/06 05:07:12;;;;;;;4.00;3.55;;;;;;;;;;5087357;28;20043;-77
2021/04/06 05:09:38;;;;;;;4.20;3.42;;;;;;;;;;5088558;28;20103;-77
2021/04/06 05:12:04;;;;;;;4.47;3.92;;;;;;;;;;5087712;28;20128;-77
2021/04/06 05:14:30;;;;;;;9.75;3.95;;;;;;;;;;5088856;28;20028;-77
2021/04/06 05:16:56;;;;;;;4.10;3.60;;;;;;;;;;5088703;28;20099;-76
2021/04/06 05:19:22;;;;;;;4.22;3.70;;;;;;;;;;5088105;28;20122;-77
2021/04/06 05:21:48;;;;;;;3.00;2.80;;;;;;;;;;5087699;28;20486;-77
2021/04/06 05:24:14;;;;;;;4.13;3.38;;;;;;;;;;5088038;28;20101;-77
2021/04/06 05:26:40;;;;;;;4.63;4.22;;;;;;;;;;5089353;28;20063;-77
2021/04/06 05:29:06;;;;;;;7.13;3.97;;;;;;;;;;5087991;28;20032;-77
2021/04/06 05:31:33;;;;;;;5.13;2.88;;;;;;;;;;5088452;28;20024;-77
2021/04/06 05:33:59;;;;;;;3.70;3.35;;;;;;;;;;5087966;28;20154;-76
2021/04/06 05:36:25;;;;;;;3.60;3.30;;;;;;;;;;5088548;28;20027;-77
2021/04/06 05:38:51;;;;;;;4.00;3.60;;;;;;;;;;5087297;28;20117;-77
2021/04/06 05:41:18;;;;;;;4.95;3.88;;;;;;;;;;5087187;28;20055;-77
2021/04/06 05:43:45;;;;;;;3.67;3.08;;;;;;;;;;5088326;28;20043;-77
2021/04/06 05:46:13;;;;;;;4.03;3.60;;;;;;;;;;5087912;28;20027;-78
2021/04/06 05:48:39;;;;;;;5.22;3.38;;;;;;;;;;5088153;28;20165;-77
2021/04/06 05:51:06;;;;;;;3.92;3.47;;;;;;;;;;5087089;28;20028;-77
2021/04/06 05:53:32;;;;;;;5.15;3.60;;;;;;;;;;5088422;28;20221;-77
2021/04/06 05:55:59;;;;;;;4.40;4.00;;;;;;;;;;5087246;28;20372;-77
2021/04/06 05:58:25;;;;;;;5.70;4.32;;;;;;;;;;5086173;28;20037;-78
2021/04/06 06:00:51;;;;;;;5.80;3.97;;;;;;;;;;5082543;28;20024;-77
2021/04/06 06:03:18;;;;;;;5.20;3.78;;;;;;;;;;5106403;28;20031;-77
2021/04/06 06:05:44;;;;;;;7.80;5.22;;;;;;;;;;5100706;28;20016;-77
2021/04/06 06:08:13;;;;;;;7.15;5.25;;;;;;;;;;5085530;28;20032;-77
2021/04/06 06:10:39;;;;;;;6.80;5.57;;;;;;;;;;5090430;28;20031;-77
2021/04/06 06:13:14;;;;;;;6.53;4.25;;;;;;;;;;5082743;28;20027;-77
2021/04/06 06:15:40;;;;;;;4.72;4.28;;;;;;;;;;5098526;28;20530;-77
2021/04/06 06:18:07;;;;;;;4.85;4.45;;;;;;;;;;5086110;28;20028;-77
2021/04/06 06:20:34;;;;;;;4.93;4.40;;;;;;;;;;5085983;28;20660;-77
2021/04/06 06:23:18;;;;;;;5.88;4.55;;;;;;;;;;5082985;28;20118;-76
2021/04/06 06:26:02;;;;;;;4.10;3.70;;;;;;;;;;5092526;28;20430;-77
2021/04/06 06:28:29;;;;;;;5.50;4.40;;;;;;;;;;5105382;28;20421;-77
2021/04/06 06:30:56;;;;;;;7.05;4.63;;;;;;;;;;5099530;28;20031;-76
2021/04/06 06:33:24;;;;;;;6.03;3.95;;;;;;;;;;5082355;28;20036;-78
2021/04/06 06:35:52;;;;;;;4.55;4.07;;;;;;;;;;5081317;28;20020;-83
2021/04/06 06:38:19;;;;;;;5.78;4.93;;;;;;;;;;5085288;28;20047;-78
2021/04/06 06:40:46;;;;;;;6.53;5.03;;;;;;;;;;5072020;28;20099;-79
2021/04/06 06:43:13;;;;;;;6.95;5.22;;;;;;;;;;5083906;28;20035;-77
2021/04/06 06:45:39;;;;;;;6.30;5.22;;;;;;;;;;5086900;28;20032;-77
2021/04/06 06:48:06;;;;;;;6.70;4.88;;;;;;;;;;5093413;28;20051;-77
2021/04/06 06:50:46;;;;;;;5.80;4.20;;;;;;;;;;5108238;28;20034;-76
2021/04/06 06:53:12;;;;;;;5.13;4.60;;;;;;;;;;5073624;28;20119;-77
2021/04/06 06:55:38;;;;;;;6.70;5.05;;;;;;;;;;5069243;28;20185;-77
2021/04/06 06:58:05;;;;;;;5.85;4.95;;;;;;;;;;5076276;28;20158;-81
2021/04/06 07:00:31;;;;;;;7.45;5.47;;;;;;;;;;5076113;28;20134;-75
2021/04/06 07:02:57;;;;;;;5.47;4.97;;;;;;;;;;5067169;28;20665;-74
2021/04/06 07:05:24;;;;;;;5.72;3.88;;;;;;;;;;5070815;28;20109;-75
2021/04/06 07:07:53;;;;;;;6.18;5.43;;;;;;;;;;5072136;28;20152;-74
2021/04/06 07:10:21;;;;;;;5.78;4.55;;;;;;;;;;5070690;28;20032;-73
2021/04/06 07:12:49;;;;;;;5.30;4.05;;;;;;;;;;5072698;28;20032;-74
2021/04/06 07:15:16;;;;;;;7.50;5.35;;;;;;;;;;5071394;28;20040;-75
2021/04/06 07:17:45;;;;;;;8.43;5.00;;;;;;;;;;5072790;28;20039;-75
2021/04/06 07:20:13;;;;;;;6.50;4.93;;;;;;;;;;5071422;28;20714;-76
2021/04/06 07:22:40;;;;;;;6.53;5.80;;;;;;;;;;5069646;28;20040;-76
2021/04/06 07:25:07;;;;;;;8.07;4.72;;;;;;;;;;5054291;28;20094;-76
2021/04/06 07:27:33;;;;;;;5.68;4.22;;;;;;;;;;5073761;28;20032;-74
2021/04/06 07:29:59;;;;;;;6.05;4.43;;;;;;;;;;5071655;28;20085;-75
2021/04/06 07:32:27;;;;;;;5.22;4.57;;;;;;;;;;5074047;28;20064;-76
2021/04/06 07:34:53;;;;;;;6.07;4.25;;;;;;;;;;5072829;28;20039;-77
2021/04/06 07:37:19;;;;;;;9.13;4.97;;;;;;;;;;5074285;28;20060;-76
2021/04/06 07:39:46;;;;;;;4.20;3.35;;;;;;;;;;5073756;28;20121;-76
2021/04/06 07:42:12;;;;;;;9.70;3.85;;;;;;;;;;5072024;28;20043;-75
2021/04/06 07:44:38;;;;;;;4.78;3.92;;;;;;;;;;5067580;28;20036;-76
2021/04/06 07:47:05;;;;;;;9.73;3.40;;;;;;;;;;5068627;28;20083;-77
2021/04/06 07:49:31;;;;;;;4.60;3.83;;;;;;;;;;5072394;28;20523;-76
2021/04/06 07:51:58;;;;;;;6.30;4.47;;;;;;;;;;5070510;28;20600;-75
2021/04/06 07:54:33;;;;;;;7.63;4.32;;;;;;;;;;5068428;28;20440;-75
2021/04/06 07:57:01;;;;;;;5.45;4.55;;;;;;;;;;5071232;28;20031;-75
2021/04/06 07:59:27;;;;;;;3.45;3.15;;;;;;;;;;5071131;28;21064;-76
2021/04/06 08:01:53;;;;;;;3.65;3.28;;;;;;;;;;5070294;28;20790;-76
2021/04/06 08:04:19;;;;;;;6.32;4.07;;;;;;;;;;5066023;28;20559;-76
2021/04/06 08:06:50;;;;;;;6.72;4.35;;;;;;;;;;5069621;28;21637;-73
2021/04/06 08:09:29;;;;;;;4.85;4.35;;;;;;;;;;5068766;28;20036;-76
2021/04/06 08:12:07;;;;;;;5.60;3.92;;;;;;;;;;5069424;28;20102;-76
2021/04/06 08:14:53;;;;;;;6.72;3.70;;;;;;;;;;5065256;28;20036;-76
2021/04/06 08:17:26;;;;;;;5.78;4.07;;;;;;;;;;5067979;28;20032;-74
2021/04/06 08:19:53;;;;;;;3.47;3.17;;;;;;;;;;5069371;28;20031;-75
2021/04/06 08:22:19;;;;;;;3.72;3.38;;;;;;;;;;5069580;28;20043;-75
2021/04/06 08:24:45;;;;;;;5.90;4.28;;;;;;;;;;5064985;28;20031;-75
2021/04/06 08:27:30;;;;;;;5.45;3.53;;;;;;;;;;5067547;28;20028;-76
2021/04/06 08:30:15;;;;;;;5.85;3.60;;;;;;;;;;5066264;28;20056;-76
2021/04/06 08:32:41;;;;;;;3.70;2.88;;;;;;;;;;5069603;28;20542;-76
2021/04/06 08:35:07;;;;;;;6.18;3.35;;;;;;;;;;5067577;28;20063;-76
2021/04/06 08:37:38;;;;;;;3.78;3.40;;;;;;;;;;5069621;28;20119;-78
2021/04/06 08:40:06;;;;;;;4.45;3.00;;;;;;;;;;5071522;28;21054;-75
2021/04/06 08:42:33;;;;;;;3.65;2.78;;;;;;;;;;5068506;28;20093;-80
2021/04/06 08:45:00;;;;;;;9.57;3.97;;;;;;;;;;5068307;28;20502;-74
2021/04/06 08:47:41;;;;;;;4.85;3.53;;;;;;;;;;5070604;28;20038;-76
2021/04/06 08:50:12;;;;;;;4.38;2.60;;;;;;;;;;5076152;28;20024;-75
2021/04/06 08:52:38;;;;;;;3.38;2.72;;;;;;;;;;5082570;28;20394;-75
2021/04/06 08:55:10;;;;;;;5.43;3.28;;;;;;;;;;5069185;28;20155;-75
2021/04/06 08:57:38;;;;;;;6.65;2.65;;;;;;;;;;5069260;28;20032;-78
2021/04/06 09:00:08;;;;;;;3.58;2.70;;;;;;;;;;5067722;28;20028;-76
2021/04/06 09:02:34;;;;;;;6.22;3.53;;;;;;;;;;5073369;28;20054;-74
2021/04/06 09:05:00;;;;;;;3.90;2.80;;;;;;;;;;5050627;28;20442;-75
2021/04/06 09:07:28;;;;;;;5.90;3.00;;;;;;;;;;5067739;28;20024;-75
2021/04/06 09:09:55;;;;;;;6.78;3.13;;;;;;;;;;5064555;28;20041;-75
2021/04/06 09:12:24;;;;;;;2.50;2.30;;;;;;;;;;5065527;28;20087;-75
2021/04/06 09:14:51;;;;;;;3.80;2.72;;;;;;;;;;5065377;28;20051;-76
2021/04/06 09:17:19;;;;;;;2.78;2.42;;;;;;;;;;5040514;28;20046;-76
2021/04/06 09:19:47;;;;;;;4.60;2.85;;;;;;;;;;5068683;28;20085;-75
2021/04/06 09:22:15;;;;;;;5.88;3.05;;;;;;;;;;5050071;28;20524;-74
2021/04/06 09:24:41;;;;;;;3.40;2.83;;;;;;;;;;5066187;28;20039;-87
2021/04/06 09:27:07;;;;;;;5.18;2.75;;;;;;;;;;5066761;28;20122;-76
2021/04/06 09:29:35;;;;;;;4.30;3.55;;;;;;;;;;5067434;28;20040;-76
2021/04/06 09:32:03;;;;;;;5.95;3.15;;;;;;;;;;5065842;28;20032;-76
2021/04/06 09:34:31;;;;;;;6.63;3.78;;;;;;;;;;5066772;28;20039;-76
2021/04/06 09:36:59;;;;;;;4.50;2.53;;;;;;;;;;5066464;28;20072;-76
2021/04/06 09:39:26;;;;;;;5.95;2.78;;;;;;;;;;5070210;28;20055;-76
2021/04/06 09:41:53;;;;;;;6.60;2.70;;;;;;;;;;5069727;28;20035;-76
2021/04/06 09:44:20;;;;;;;4.35;3.03;;;;;;;;;;5070170;28;20281;-76
2021/04/06 09:46:49;;;;;;;6.88;3.05;;;;;;;;;;5052258;28;20060;-75
2021/04/06 09:49:15;;;;;;;3.92;3.17;;;;;;;;;;5070961;28;20386;-75
2021/04/06 09:51:53;;;;;;;1.85;1.70;;;;;;;;;;5070537;28;20031;-76
2021/04/06 09:54:26;;;;;;;4.38;2.58;;;;;;;;;;5071237;28;20036;-76
2021/04/06 09:56:52;;;;;;;2.97;2.65;;;;;;;;;;5072227;28;20164;-76
2021/04/06 09:59:18;;;;;;;3.42;2.20;;;;;;;;;;5079697;28;20032;-75
2021/04/06 10:01:49;;;;;;;7.05;3.38;;;;;;;;;;5085061;28;20032;-75
2021/04/06 10:04:15;;;;;;;5.55;2.53;;;;;;;;;;5081969;28;20075;-75
2021/04/06 10:06:44;;;;;;;3.50;1.67;;;;;;;;;;5078678;28;20031;-75
2021/04/06 10:09:20;;;;;;;3.80;3.20;;;;;;;;;;5081279;28;20032;-76
2021/04/06 10:11:47;;;;;;;4.90;2.25;;;;;;;;;;5079717;28;20024;-76
2021/04/06 10:14:14;;;;;;;3.65;2.58;;;;;;;;;;5076982;28;20024;-76
2021/04/06 10:16:40;;;;;;;4.60;2.17;;;;;;;;;;5083474;28;20395;-76
2021/04/06 10:19:20;;;;;;;3.30;2.15;;;;;;;;;;5083637;28;20023;-77
2021/04/06 10:21:57;;;;;;;4.55;2.00;;;;;;;;;;5063745;28;20106;-75
2021/04/06 10:24:25;;;;;;;3.83;1.77;;;;;;;;;;5062506;28;20031;-75
2021/04/06 10:27:11;;;;;;;3.58;2.25;;;;;;;;;;5072616;28;20394;-75
2021/04/06 10:29:38;;;;;;;6.05;3.75;;;;;;;;;;5059714;28;20047;-75
2021/04/06 10:32:04;;;;;;;2.58;2.15;;;;;;;;;;5076217;28;20016;-74
2021/04/06 10:34:31;;;;;;;4.28;2.03;;;;;;;;;;5089097;28;20483;-75
2021/04/06 10:37:05;;;;;;;3.88;2.22;;;;;;;;;;5107101;28;20032;-74
2021/04/06 10:39:43;;;;;;;3.03;2.20;;;;;;;;;;5107811;28;20130;-75
2021/04/06 10:42:12;;;;;;;5.47;2.70;;;;;;;;;;5106323;28;20134;-75
2021/04/06 10:44:39;;;;;;;3.85;2.03;;;;;;;;;;5107067;28;20024;-75
2021/04/06 10:47:05;;;;;;;4.03;2.67;;;;;;;;;;5099909;28;20028;-74
2021/04/06 10:49:31;;;;;;;4.35;2.08;;;;;;;;;;5086499;28;20089;-75
2021/04/06 10:51:59;;;;;;;2.78;1.95;;;;;;;;;;5075135;28;20060;-74
2021/04/06 10:54:25;;;;;;;1.90;1.70;;;;;;;;;;5066421;28;20051;-75
2021/04/06 10:56:54;;;;;;;2.40;1.48;;;;;;;;;;5067740;28;20074;-75
2021/04/06 10:59:37;;;;;;;1.88;1.77;;;;;;;;;;5067087;28;20047;-75
2021/04/06 11:02:04;;;;;;;2.13;1.57;;;;;;;;;;5066679;28;20028;-75
2021/04/06 11:04:31;;;;;;;3.92;2.15;;;;;;;;;;5077214;28;20360;-75
2021/04/06 11:07:00;;;;;;;2.15;1.95;;;;;;;;;;5073873;28;20039;-74
2021/04/06 11:09:33;;;;;;;2.05;1.23;;;;;;;;;;5096951;28;20048;-75
2021/04/06 11:11:59;;;;;;;3.45;1.90;;;;;;;;;;5107103;28;20036;-74
2021/04/06 11:14:26;;;;;;;3.20;1.40;;;;;;;;;;5105845;28;20459;-74
2021/04/06 11:16:53;;;;;;;2.17;1.60;;;;;;;;;;5107325;28;20031;-74
2021/04/06 11:19:26;;;;;;;1.92;1.63;;;;;;;;;;5107377;28;20765;-74
2021/04/06 11:21:54;;;;;;;4.25;2.28;;;;;;;;;;5110858;28;20070;-74
2021/04/06 11:24:21;;;;;;;1.67;1.20;;;;;;;;;;5110693;28;20039;-74
2021/04/06 11:26:48;;;;;;;2.75;1.85;;;;;;;;;;5090483;28;20021;-75
2021/04/06 11:29:15;;;;;;;1.55;1.45;;;;;;;;;;5107901;28;20406;-75
2021/04/06 11:31:42;;;;;;;2.63;1.35;;;;;;;;;;5107119;28;20054;-75
2021/04/06 11:34:09;;;;;;;5.93;2.08;;;;;;;;;;5109457;28;20106;-75
2021/04/06 11:36:35;;;;;;;3.40;1.45;;;;;;;;;;5083161;28;20029;-75
2021/04/06 11:39:01;;;;;;;5.30;1.88;;;;;;;;;;5080726;28;20067;-78
2021/04/06 11:41:28;;;;;;;5.18;1.90;;;;;;;;;;5076051;28;20059;-78
2021/04/06 11:43:54;;;;;;;1.85;1.30;;;;;;;;;;5078278;28;20118;-78
2021/04/06 11:46:20;;;;;;;2.08;1.50;;;;;;;;;;5083499;28;20498;-76
2021/04/06 11:48:47;;;;;;;3.03;1.95;;;;;;;;;;5091052;28;20131;-77
2021/04/06 11:51:13;;;;;;;6.40;1.88;;;;;;;;;;5084257;28;20058;-76
2021/04/06 11:53:40;;;;;;;3.28;1.60;;;;;;;;;;5079519;28;20043;-75
2021/04/06 11:56:06;;;;;;;1.52;1.30;;;;;;;;;;5081469;28;20069;-75
2021/04/06 11:58:32;;;;;;;2.53;1.83;;;;;;;;;;5084549;28;20158;-75
2021/04/06 12:00:59;;;;;;;2.25;1.80;;;;;;;;;;5074741;28;20025;-76
2021/04/06 12:03:26;;;;;;;4.80;1.63;;;;;;;;;;5095840;28;20061;-76
2021/04/06 12:05:52;;;;;;;5.20;1.95;;;;;;;;;;5075376;28;20100;-77
2021/04/06 12:08:18;;;;;;;2.00;1.88;;;;;;;;;;5084083;28;20027;-77
2021/04/06 12:10:46;;;;;;;5.30;1.85;;;;;;;;;;5094195;28;20037;-76
2021/04/06 12:13:13;;;;;;;2.88;1.33;;;;;;;;;;5092937;28;20494;-76
2021/04/06 12:15:39;;;;;;;3.65;1.60;;;;;;;;;;5088858;28;20166;-75
2021/04/06 12:18:05;;;;;;;6.45;2.25;;;;;;;;;;5074274;28;20398;-75
2021/04/06 12:20:32;;;;;;;5.90;2.10;;;;;;;;;;5083358;28;20610;-75
2021/04/06 12:22:58;;;;;;;1.48;1.33;;;;;;;;;;5084913;28;20040;-75
2021/04/06 12:25:24;;;;;;;3.08;1.60;;;;;;;;;;5076817;28;20058;-76
2021/04/06 12:27:50;;;;;;;4.38;1.80;;;;;;;;;;5075703;28;20035;-76
2021/04/06 12:30:16;;;;;;;3.85;1.58;;;;;;;;;;5070733;28;20143;-76
2021/04/06 12:32:43;;;;;;;2.90;1.73;;;;;;;;;;5072176;28;20028;-76
2021/04/06 12:35:10;;;;;;;3.88;1.83;;;;;;;;;;5064632;28;20032;-75
2021/04/06 12:37:36;;;;;;;4.07;1.60;;;;;;;;;;5073124;28;20072;-75
2021/04/06 12:40:03;;;;;;;2.28;1.40;;;;;;;;;;5090701;28;20015;-76
2021/04/06 12:42:29;;;;;;;3.58;1.85;;;;;;;;;;5087433;28;20123;-75
2021/04/06 12:44:55;;;;;;;4.85;2.00;;;;;;;;;;5084365;28;20108;-73
2021/04/06 12:47:22;;;;;;;3.22;1.85;;;;;;;;;;5075599;28;20115;-76
2021/04/06 12:49:48;;;;;;;3.38;1.40;;;;;;;;;;5085179;28;20037;-76
2021/04/06 12:52:16;;;;;;;3.03;1.88;;;;;;;;;;5072719;28;20081;-76
2021/04/06 12:54:42;;;;;;;1.88;1.75;;;;;;;;;;5068944;28;20097;-76
2021/04/06 12:57:09;;;;;;;3.80;2.50;;;;;;;;;;5075402;28;20220;-77
2021/04/06 12:59:35;;;;;;;3.47;1.25;;;;;;;;;;5087291;28;20019;-78
2021/04/06 13:02:01;;;;;;;2.47;1.70;;;;;;;;;;5078101;28;20158;-74
2021/04/06 13:04:27;;;;;;;3.10;1.60;;;;;;;;;;5082536;28;20036;-76
2021/04/06 13:06:55;;;;;;;2.95;1.50;;;;;;;;;;5076198;28;20108;-77
2021/04/06 13:09:21;;;;;;;7.20;1.83;;;;;;;;;;5080540;28;20136;-76
2021/04/06 13:11:48;;;;;;;3.28;1.05;;;;;;;;;;5075512;28;20528;-76
2021/04/06 13:14:14;;;;;;;3.80;1.35;;;;;;;;;;5077593;28;20450;-76
2021/04/06 13:16:40;;;;;;;2.00;1.50;;;;;;;;;;5073237;28;20024;-76
2021/04/06 13:19:06;;;;;;;2.95;1.85;;;;;;;;;;5076568;28;20031;-76
2021/04/06 13:21:32;;;;;;;2.97;1.25;;;;;;;;;;5074746;28;20581;-76
2021/04/06 13:23:59;;;;;;;3.70;1.45;;;;;;;;;;5081675;28;20090;-74
2021/04/06 13:26:26;;;;;;;1.58;1.17;;;;;;;;;;5082670;28;20043;-74
2021/04/06 13:28:52;;;;;;;1.02;1.02;;;;;;;;;;5091632;28;20084;-74
2021/04/06 13:31:18;;;;;;;5.53;1.92;;;;;;;;;;5093494;28;20033;-78
2021/04/06 13:33:45;;;;;;;3.25;1.55;;;;;;;;;;5082999;28;20035;-77
2021/04/06 13:36:11;;;;;;;4.03;2.78;;;;;;;;;;5083097;28;20396;-77
2021/04/06 13:38:37;;;;;;;2.65;1.40;;;;;;;;;;5082336;28;20410;-76
2021/04/06 13:41:04;;;;;;;2.05;1.30;;;;;;;;;;5091455;28;20028;-76
2021/04/06 13:43:30;;;;;;;5.50;1.90;;;;;;;;;;5092361;28;20374;-72
2021/04/06 13:45:56;;;;;;;4.80;1.45;;;;;;;;;;5088594;28;20103;-75
2021/04/06 13:48:22;;;;;;;4.32;1.80;;;;;;;;;;5091137;28;20036;-79
2021/04/06 13:50:48;;;;;;;4.57;1.75;;;;;;;;;;5077139;28;20062;-75
2021/04/06 13:53:14;;;;;;;5.18;1.90;;;;;;;;;;5070566;28;20050;-75
2021/04/06 13:55:41;;;;;;;5.95;1.83;;;;;;;;;;5068619;28;20056;-79
2021/04/06 13:58:09;;;;;;;5.00;2.40;;;;;;;;;;5069070;28;20103;-75
2021/04/06 14:00:41;;;;;;;1.88;1.67;;;;;;;;;;5079769;28;20449;-75
2021/04/06 14:03:08;;;;;;;3.13;2.13;;;;;;;;;;5068865;28;20036;-76
2021/04/06 14:05:35;;;;;;;3.25;2.03;;;;;;;;;;5069501;28;20032;-75
2021/04/06 14:08:01;;;;;;;8.35;2.42;;;;;;;;;;5071792;28;20035;-80
2021/04/06 14:10:28;;;;;;;3.20;2.60;;;;;;;;;;5089123;28;20027;-75
2021/04/06 14:12:54;;;;;;;5.57;2.00;;;;;;;;;;5072147;28;20098;-76
2021/04/06 14:15:21;;;;;;;8.15;2.55;;;;;;;;;;5070915;28;20034;-76
2021/04/06 14:17:49;;;;;;;3.03;1.98;;;;;;;;;;5090539;28;20028;-76
2021/04/06 14:20:16;;;;;;;5.15;2.00;;;;;;;;;;5088117;28;20038;-76
2021/04/06 14:22:42;;;;;;;3.35;1.75;;;;;;;;;;5076369;28;20048;-76
2021/04/06 14:25:09;;;;;;;6.18;1.90;;;;;;;;;;5069060;28;20024;-76
2021/04/06 14:27:36;;;;;;;4.68;2.83;;;;;;;;;;5085131;28;20023;-76
2021/04/06 14:30:04;;;;;;;3.47;1.88;;;;;;;;;;5088152;28;20023;-76
2021/04/06 14:32:30;;;;;;;3.40;2.30;;;;;;;;;;5091022;28;20060;-76
2021/04/06 14:34:56;;;;;;;3.00;1.85;;;;;;;;;;5081350;28;21047;-74
2021/04/06 14:37:22;;;;;;;2.22;2.08;;;;;;;;;;5078813;28;20143;-76
2021/04/06 14:39:48;;;;;;;6.53;2.40;;;;;;;;;;5079817;28;20058;-76
2021/04/06 14:42:14;;;;;;;5.78;2.20;;;;;;;;;;5093955;28;20089;-75
2021/04/06 14:44:40;;;;;;;2.80;2.08;;;;;;;;;;5082386;28;20074;-78
2021/04/06 14:47:06;;;;;;;5.13;3.10;;;;;;;;;;5075661;28;20013;-76
2021/04/06 14:49:32;;;;;;;15.52;3.35;;;;;;;;;;5080359;28;20416;-75
2021/04/06 14:51:59;;;;;;;3.58;2.63;;;;;;;;;;5075038;28;20032;-72
2021/04/06 14:54:31;;;;;;;4.80;2.97;;;;;;;;;;5074818;28;20741;-76